Time;durP1;ratioP1;P1;durP2;ratioP2;P2;SDS_P1;SDS_P2;PMS_P1;PMS_P2;Temp;Humidity;BMP_temperature;BMP_pressure;BME280_temperature;BME280_humidity;BME280_pressure;Samples;Min_cycle;Max_cycle;Signal;HPM_P1;HPM_P2
2021/12/12 00:01:23;;;;;;;1.23;1.13;;;2.90;99.90;;;;;;5115301;28;20065;-82
2021/12/12 00:03:53;;;;;;;1.70;1.60;;;2.90;99.90;;;;;;5113930;28;20100;-83
2021/12/12 00:06:30;;;;;;;1.23;0.95;;;2.90;99.90;;;;;;5114974;28;20106;-85
2021/12/12 00:09:02;;;;;;;10.50;4.55;;;2.90;99.90;;;;;;5115409;28;20446;-85
2021/12/12 00:11:30;;;;;;;2.00;1.80;;;2.90;99.90;;;;;;5114789;28;20438;-81
2021/12/12 00:14:01;;;;;;;2.55;2.17;;;3.00;99.90;;;;;;5114682;28;20086;-84
2021/12/12 00:16:27;;;;;;;1.45;1.35;;;3.00;99.90;;;;;;5113779;28;20044;-82
2021/12/12 00:18:54;;;;;;;0.80;0.80;;;3.00;99.90;;;;;;5113597;28;20090;-82
2021/12/12 00:21:22;;;;;;;0.95;0.93;;;2.80;99.90;;;;;;5115202;28;20107;-82
2021/12/12 00:23:48;;;;;;;1.20;1.10;;;3.00;99.90;;;;;;5114987;28;20079;-83
2021/12/12 00:26:14;;;;;;;1.47;1.37;;;3.00;99.90;;;;;;5113475;28;20040;-84
2021/12/12 00:28:40;;;;;;;1.25;1.15;;;3.20;99.90;;;;;;5113894;28;20032;-85
2021/12/12 00:31:11;;;;;;;1.00;0.98;;;3.00;99.90;;;;;;5113337;28;20048;-85
2021/12/12 00:33:41;;;;;;;1.95;1.02;;;3.00;99.90;;;;;;5114262;28;20144;-82
2021/12/12 00:36:07;;;;;;;1.70;1.50;;;;;;;;;;5113673;28;20426;-80
2021/12/12 00:38:34;;;;;;;3.13;1.73;;;3.00;99.90;;;;;;5113635;28;20051;-81
2021/12/12 00:41:09;;;;;;;;;;;3.00;99.90;;;;;;5113690;28;20446;-85
2021/12/12 00:43:41;;;;;;;2.60;1.45;;;3.00;99.90;;;;;;5114273;28;19935;-82
2021/12/12 00:46:09;;;;;;;1.55;1.45;;;3.30;99.90;;;;;;5113053;28;20051;-81
2021/12/12 00:48:36;;;;;;;1.13;1.02;;;3.00;99.90;;;;;;5113864;28;20043;-82
2021/12/12 00:51:05;;;;;;;1.25;1.15;;;3.50;99.90;;;;;;5114279;28;20118;-81
2021/12/12 00:53:32;;;;;;;3.35;1.95;;;3.00;99.90;;;;;;5114250;28;20040;-85
2021/12/12 00:55:58;;;;;;;6.72;3.17;;;3.00;99.90;;;;;;5113336;28;20049;-84
2021/12/12 00:58:25;;;;;;;1.15;1.05;;;3.10;99.90;;;;;;5113967;28;20046;-80
2021/12/12 01:00:55;;;;;;;2.83;1.95;;;3.10;99.90;;;;;;5113088;28;20055;-84
2021/12/12 01:03:26;;;;;;;1.88;1.77;;;3.10;99.90;;;;;;5113290;28;20047;-81
2021/12/12 01:05:53;;;;;;;1.98;1.77;;;3.10;99.90;;;;;;5114416;28;20050;-85
2021/12/12 01:08:19;;;;;;;1.20;1.10;;;3.10;99.90;;;;;;5112792;28;20070;-84
2021/12/12 01:10:51;;;;;;;6.47;1.92;;;3.40;99.90;;;;;;5113218;28;20040;-80
2021/12/12 01:13:18;;;;;;;1.50;1.40;;;3.10;99.90;;;;;;5113680;28;20395;-84
2021/12/12 01:15:55;;;;;;;1.20;0.85;;;3.10;99.90;;;;;;5114423;28;20048;-84
2021/12/12 01:18:28;;;;;;;0.88;0.88;;;3.70;99.90;;;;;;5113342;28;20128;-83
2021/12/12 01:21:11;;;;;;;2.30;2.13;;;3.20;99.90;;;;;;5114283;28;20055;-85
2021/12/12 01:23:46;;;;;;;1.00;1.00;;;3.10;99.90;;;;;;5082351;28;20055;-80
2021/12/12 01:26:12;;;;;;;1.58;1.48;;;3.70;99.90;;;;;;5097657;28;20395;-81
2021/12/12 01:28:40;;;;;;;1.33;1.23;;;3.30;99.90;;;;;;5096103;28;20492;-82
2021/12/12 01:31:09;;;;;;;2.90;2.20;;;3.20;99.90;;;;;;5113771;28;20495;-83
2021/12/12 01:33:36;;;;;;;0.90;0.90;;;3.20;99.90;;;;;;5096163;28;20059;-84
2021/12/12 01:36:08;;;;;;;1.60;1.50;;;3.30;99.90;;;;;;5096066;28;20048;-81
2021/12/12 01:38:52;;;;;;;1.60;1.50;;;3.30;99.90;;;;;;5112988;28;20091;-84
2021/12/12 01:41:27;;;;;;;1.15;0.90;;;3.90;99.90;;;;;;5113077;28;20131;-82
2021/12/12 01:43:59;;;;;;;1.30;1.20;;;3.30;99.90;;;;;;5113867;28;20043;-82
2021/12/12 01:46:29;;;;;;;0.80;0.80;;;3.30;99.90;;;;;;5112432;28;20128;-84
2021/12/12 01:48:57;;;;;;;2.75;2.25;;;3.30;99.90;;;;;;5113404;28;20092;-81
2021/12/12 01:51:23;;;;;;;2.35;1.42;;;3.40;99.90;;;;;;5112945;28;20039;-84
2021/12/12 01:53:51;;;;;;;3.00;1.63;;;3.40;99.90;;;;;;5114009;28;20475;-84
2021/12/12 01:56:30;;;;;;;1.33;1.23;;;3.40;99.90;;;;;;5099483;28;20047;-85
2021/12/12 01:59:02;;;;;;;0.75;0.75;;;3.40;99.90;;;;;;5116635;28;20055;-81
2021/12/12 02:01:44;;;;;;;1.85;1.75;;;3.40;99.90;;;;;;5117385;28;20048;-84
2021/12/12 02:04:15;;;;;;;1.05;0.98;;;3.40;99.90;;;;;;5117598;28;20407;-83
2021/12/12 02:06:44;;;;;;;3.03;1.73;;;3.40;99.90;;;;;;5117338;28;20062;-86
2021/12/12 02:09:11;;;;;;;1.27;1.17;;;3.40;99.90;;;;;;5116171;28;20088;-82
2021/12/12 02:11:39;;;;;;;3.78;2.05;;;3.40;99.90;;;;;;5117020;28;20048;-84
2021/12/12 02:14:11;;;;;;;0.88;0.80;;;3.40;99.90;;;;;;5116423;28;20074;-85
2021/12/12 02:16:41;;;;;;;1.77;1.60;;;3.40;99.90;;;;;;5116318;28;20373;-82
2021/12/12 02:19:07;;;;;;;1.92;1.77;;;3.50;99.90;;;;;;5098876;28;20056;-82
2021/12/12 02:22:08;;;;;;;9.40;2.58;;;3.40;99.90;;;;;;5115874;28;20053;-85
2021/12/12 02:35:44;;;;;;;1.75;1.40;;;3.50;99.90;;;;;;5117034;28;20043;-85
2021/12/12 02:38:24;;;;;;;1.75;1.38;;;3.50;99.90;;;;;;5116968;28;20035;-85
2021/12/12 02:40:54;;;;;;;1.55;1.23;;;3.50;99.90;;;;;;5116786;28;20067;-83
2021/12/12 02:43:25;;;;;;;0.65;0.65;;;3.50;99.90;;;;;;5116341;28;20529;-82
2021/12/12 02:45:55;;;;;;;1.48;1.42;;;3.50;99.90;;;;;;5117060;28;20040;-86
2021/12/12 02:48:32;;;;;;;3.30;3.00;;;3.50;99.90;;;;;;5115572;28;20052;-85
2021/12/12 02:51:01;;;;;;;1.63;1.53;;;3.50;99.90;;;;;;5098747;28;20089;-82
2021/12/12 02:53:35;;;;;;;0.80;0.80;;;3.50;99.90;;;;;;5116457;28;20050;-82
2021/12/12 02:56:06;;;;;;;0.95;0.90;;;3.50;99.90;;;;;;5115772;28;20126;-82
2021/12/12 02:58:32;;;;;;;0.85;0.85;;;3.50;99.90;;;;;;5117006;28;20036;-83
2021/12/12 03:01:13;;;;;;;5.88;2.53;;;3.50;99.90;;;;;;5116339;28;20046;-83
2021/12/12 03:03:40;;;;;;;6.00;1.52;;;3.50;99.90;;;;;;5115054;28;20039;-82
2021/12/12 03:06:09;;;;;;;1.52;1.42;;;3.50;99.90;;;;;;5115381;28;20069;-86
2021/12/12 03:08:39;;;;;;;1.60;1.50;;;3.60;99.90;;;;;;5116097;28;20061;-82
2021/12/12 03:11:05;;;;;;;0.85;0.70;;;3.60;99.90;;;;;;5116166;28;20047;-83
2021/12/12 03:13:30;;;;;;;1.45;1.35;;;3.60;99.90;;;;;;5115389;28;20047;-85
2021/12/12 03:15:56;;;;;;;2.10;1.95;;;3.60;99.90;;;;;;5115982;28;20051;-86
2021/12/12 03:18:43;;;;;;;1.67;1.58;;;3.70;99.90;;;;;;5115199;28;20043;-84
2021/12/12 03:21:15;;;;;;;1.50;1.40;;;3.60;99.90;;;;;;5116145;28;20449;-85
2021/12/12 03:23:45;;;;;;;1.88;1.67;;;3.50;99.90;;;;;;5115282;28;20051;-86
2021/12/12 03:26:13;;;;;;;1.48;1.38;;;3.60;99.90;;;;;;5064905;28;20055;-84
2021/12/12 03:28:41;;;;;;;2.53;1.98;;;3.60;99.90;;;;;;5115637;28;20136;-85
2021/12/12 03:31:15;;;;;;;1.70;1.60;;;3.60;99.90;;;;;;5114185;28;20053;-85
2021/12/12 03:33:41;;;;;;;0.82;0.82;;;3.60;99.90;;;;;;5115776;28;20048;-84
2021/12/12 03:36:11;;;;;;;0.70;0.70;;;3.60;99.90;;;;;;5115729;28;20522;-84
2021/12/12 03:38:41;;;;;;;1.05;0.80;;;3.70;99.90;;;;;;5098040;28;20106;-85
2021/12/12 03:41:10;;;;;;;1.27;1.23;;;3.70;99.90;;;;;;5115900;28;20104;-83
2021/12/12 03:43:37;;;;;;;15.48;3.58;;;3.70;99.90;;;;;;5114686;28;20487;-82
2021/12/12 03:46:06;;;;;;;0.68;0.68;;;3.70;99.90;;;;;;5114842;28;20130;-82
2021/12/12 03:48:34;;;;;;;1.42;1.25;;;3.90;99.90;;;;;;5114348;28;20480;-84
2021/12/12 03:51:03;;;;;;;1.60;1.50;;;3.80;99.90;;;;;;5115330;28;20044;-85
2021/12/12 03:53:30;;;;;;;3.60;1.08;;;3.70;99.90;;;;;;5115185;28;20039;-86
2021/12/12 03:55:59;;;;;;;1.50;1.40;;;3.70;99.90;;;;;;5115319;28;20134;-83
2021/12/12 03:58:25;;;;;;;1.23;1.13;;;3.70;99.90;;;;;;5114041;28;20479;-84
2021/12/12 04:00:56;;;;;;;1.67;1.58;;;3.80;99.90;;;;;;5097094;28;20117;-87
2021/12/12 04:03:23;;;;;;;1.50;1.40;;;3.80;99.90;;;;;;5097172;28;20047;-84
2021/12/12 04:05:53;;;;;;;1.33;1.23;;;3.80;99.90;;;;;;5115168;28;20040;-82
2021/12/12 04:08:25;;;;;;;0.98;0.82;;;3.80;99.90;;;;;;5113788;28;20043;-82
2021/12/12 04:10:51;;;;;;;1.15;1.05;;;3.60;99.90;;;;;;5114782;28;20051;-84
2021/12/12 04:13:17;;;;;;;0.82;0.82;;;3.80;99.90;;;;;;5115068;28;20043;-84
2021/12/12 04:15:43;;;;;;;0.82;0.82;;;3.80;99.90;;;;;;5114799;28;20472;-85
2021/12/12 04:18:08;;;;;;;2.45;2.25;;;3.80;99.90;;;;;;5113506;28;20048;-86
2021/12/12 04:20:38;;;;;;;0.80;0.80;;;4.50;99.90;;;;;;5113986;28;20051;-85
2021/12/12 04:23:17;;;;;;;0.82;0.82;;;3.80;99.90;;;;;;5113675;28;20051;-86
2021/12/12 04:25:43;;;;;;;3.67;0.85;;;3.90;99.90;;;;;;5114000;28;20087;-84
2021/12/12 04:28:09;;;;;;;0.73;0.70;;;3.90;99.90;;;;;;5114670;28;20475;-84
2021/12/12 04:30:35;;;;;;;0.70;0.70;;;3.80;99.90;;;;;;5114654;28;20054;-83
2021/12/12 04:33:01;;;;;;;3.03;0.88;;;3.90;99.90;;;;;;5114578;28;20384;-86
2021/12/12 04:35:26;;;;;;;0.85;0.85;;;3.90;99.90;;;;;;5114656;28;20043;-85
2021/12/12 04:37:54;;;;;;;0.75;0.75;;;4.00;99.90;;;;;;5113673;28;20479;-84
2021/12/12 04:40:23;;;;;;;0.80;0.80;;;4.00;99.90;;;;;;5113238;28;20044;-84
2021/12/12 04:42:51;;;;;;;1.05;0.95;;;4.00;99.90;;;;;;5113507;28;20365;-86
2021/12/12 04:45:20;;;;;;;2.22;1.35;;;4.00;99.90;;;;;;5114445;28;20368;-83
2021/12/12 04:51:14;;;;;;;0.88;0.82;;;4.10;99.90;;;;;;5114476;28;20395;-85
2021/12/12 04:53:43;;;;;;;0.75;0.75;;;4.10;99.90;;;;;;5113081;28;20126;-85
2021/12/12 04:56:19;;;;;;;1.02;1.02;;;4.10;99.90;;;;;;5113426;28;20032;-81
2021/12/12 04:58:53;;;;;;;0.70;0.70;;;4.10;99.90;;;;;;5114552;28;20048;-83
2021/12/12 05:01:23;;;;;;;0.70;0.70;;;4.10;99.90;;;;;;5096732;28;20269;-83
2021/12/12 05:03:55;;;;;;;1.58;0.80;;;4.10;99.90;;;;;;5114772;28;20039;-83
2021/12/12 05:06:32;;;;;;;2.55;1.60;;;3.80;99.90;;;;;;5114113;28;20048;-85
2021/12/12 05:09:10;;;;;;;0.82;0.82;;;4.10;99.90;;;;;;5113419;28;20078;-85
2021/12/12 05:11:47;;;;;;;3.50;1.52;;;4.10;99.90;;;;;;5114334;28;20055;-85
2021/12/12 05:14:22;;;;;;;0.60;0.60;;;4.20;99.90;;;;;;5114175;28;20077;-85
2021/12/12 05:16:52;;;;;;;1.88;1.77;;;4.10;99.90;;;;;;5114690;28;20059;-84
2021/12/12 05:19:24;;;;;;;2.45;0.88;;;4.20;99.90;;;;;;5113159;28;20051;-85
2021/12/12 05:21:53;;;;;;;2.58;2.05;;;4.20;99.90;;;;;;5096182;28;20047;-82
2021/12/12 05:24:21;;;;;;;5.55;0.77;;;4.20;99.90;;;;;;5096280;28;20050;-84
2021/12/12 05:26:55;;;;;;;0.77;0.77;;;4.20;99.90;;;;;;5112943;28;20461;-83
2021/12/12 05:29:25;;;;;;;0.82;0.82;;;3.70;99.90;;;;;;5115262;28;20505;-84
2021/12/12 05:31:53;;;;;;;1.92;1.27;;;4.20;99.90;;;;;;5118072;28;20043;-83
2021/12/12 05:34:23;;;;;;;1.25;0.70;;;4.50;99.90;;;;;;5117877;28;20039;-82
2021/12/12 05:36:51;;;;;;;0.85;0.85;;;4.30;99.90;;;;;;5118344;28;20047;-82
2021/12/12 05:39:17;;;;;;;0.82;0.82;;;4.20;99.90;;;;;;5100017;28;20399;-81
2021/12/12 05:41:43;;;;;;;1.02;0.93;;;4.40;99.90;;;;;;5117759;28;20051;-84
2021/12/12 05:44:09;;;;;;;0.80;0.80;;;4.30;99.90;;;;;;5117816;28;20044;-82
2021/12/12 05:46:35;;;;;;;1.60;1.30;;;3.60;99.90;;;;;;5115973;28;20105;-84
2021/12/12 05:49:04;;;;;;;1.92;1.38;;;4.30;99.90;;;;;;5117739;28;20094;-83
2021/12/12 05:51:31;;;;;;;0.60;0.60;;;4.30;99.90;;;;;;5117736;28;20054;-82
2021/12/12 05:53:56;;;;;;;0.60;0.60;;;4.30;99.90;;;;;;5116423;28;20058;-83
2021/12/12 05:56:24;;;;;;;0.77;0.77;;;4.30;99.90;;;;;;5117358;28;20047;-84
2021/12/12 05:58:51;;;;;;;0.70;0.70;;;4.70;99.90;;;;;;5099646;28;20090;-83
2021/12/12 06:01:18;;;;;;;0.70;0.70;;;4.40;99.90;;;;;;5117639;28;20391;-83
2021/12/12 06:03:45;;;;;;;0.60;0.60;;;4.40;99.90;;;;;;5099266;28;20062;-81
2021/12/12 06:06:15;;;;;;;0.60;0.60;;;4.40;99.90;;;;;;5117030;28;20035;-84
2021/12/12 06:08:42;;;;;;;0.90;0.85;;;4.40;99.90;;;;;;5116136;28;20075;-82
2021/12/12 06:11:08;;;;;;;0.60;0.60;;;3.90;99.90;;;;;;5098947;28;20100;-83
2021/12/12 06:13:37;;;;;;;0.82;0.80;;;4.90;99.90;;;;;;5117224;28;20049;-84
2021/12/12 06:16:04;;;;;;;0.75;0.75;;;4.40;99.90;;;;;;5099088;28;20410;-83
2021/12/12 06:18:35;;;;;;;1.58;1.23;;;4.40;99.90;;;;;;5116130;28;20112;-83
2021/12/12 06:21:02;;;;;;;1.15;1.05;;;4.40;99.90;;;;;;5115794;28;20074;-83
2021/12/12 06:23:28;;;;;;;0.60;0.60;;;4.40;99.90;;;;;;5117318;28;20043;-83
2021/12/12 06:25:55;;;;;;;1.08;0.70;;;4.40;99.90;;;;;;5117471;28;20040;-83
2021/12/12 06:28:27;;;;;;;0.57;0.57;;;4.50;99.90;;;;;;5117465;28;20462;-82
2021/12/12 06:30:54;;;;;;;1.17;1.08;;;4.50;99.90;;;;;;5117573;28;20051;-83
2021/12/12 06:33:20;;;;;;;0.60;0.60;;;4.40;99.90;;;;;;5117529;28;20050;-85
2021/12/12 06:35:46;;;;;;;0.60;0.60;;;4.40;99.90;;;;;;5115842;28;20043;-83
2021/12/12 06:38:13;;;;;;;0.70;0.70;;;4.40;99.90;;;;;;5115370;28;20526;-82
2021/12/12 06:40:41;;;;;;;0.70;0.70;;;4.50;99.90;;;;;;5098311;28;20079;-85
2021/12/12 06:43:09;;;;;;;0.88;0.88;;;4.50;99.90;;;;;;5116531;28;20043;-80
2021/12/12 06:45:35;;;;;;;0.50;0.50;;;4.50;99.90;;;;;;5116631;28;20043;-84
2021/12/12 06:48:04;;;;;;;0.60;0.60;;;4.50;99.90;;;;;;5098434;28;20047;-81
2021/12/12 06:50:30;;;;;;;0.60;0.60;;;4.50;99.90;;;;;;5116393;28;20046;-81
2021/12/12 06:52:56;;;;;;;1.35;1.25;;;4.50;99.90;;;;;;5116570;28;20043;-83
2021/12/12 06:55:23;;;;;;;0.75;0.75;;;4.50;99.90;;;;;;5115284;28;20039;-80
2021/12/12 06:57:50;;;;;;;0.60;0.60;;;4.50;99.90;;;;;;5115460;28;20047;-82
2021/12/12 07:00:20;;;;;;;0.75;0.70;;;5.00;99.90;;;;;;5116021;28;20043;-82
2021/12/12 07:02:46;;;;;;;0.70;0.70;;;4.40;99.90;;;;;;5115001;28;20054;-82
2021/12/12 07:05:22;;;;;;;0.50;0.50;;;4.40;99.90;;;;;;5116394;28;20462;-78
2021/12/12 07:07:49;;;;;;;0.63;0.63;;;4.60;99.90;;;;;;5116414;28;20061;-83
2021/12/12 07:10:18;;;;;;;0.50;0.50;;;4.60;99.90;;;;;;5116032;28;20047;-80
2021/12/12 07:12:45;;;;;;;0.73;0.73;;;4.60;99.90;;;;;;5114823;28;20590;-82
2021/12/12 07:15:12;;;;;;;;;;;4.60;99.90;;;;;;5116593;28;20040;-79
2021/12/12 07:17:39;;;;;;;0.70;0.70;;;5.80;99.90;;;;;;5115114;28;19927;-82
2021/12/12 07:20:07;;;;;;;0.88;0.80;;;4.70;99.90;;;;;;5115615;28;20051;-83
2021/12/12 07:22:34;;;;;;;0.50;0.50;;;4.70;99.90;;;;;;5114841;28;20047;-82
2021/12/12 07:25:05;;;;;;;0.85;0.85;;;4.70;99.90;;;;;;5115881;28;20106;-82
2021/12/12 07:27:31;;;;;;;0.60;0.60;;;4.70;99.90;;;;;;5115937;28;20118;-82
2021/12/12 07:29:57;;;;;;;0.55;0.55;;;4.70;99.90;;;;;;5114972;28;20051;-81
2021/12/12 07:32:26;;;;;;;0.90;0.80;;;4.40;99.90;;;;;;5114755;28;20080;-80
2021/12/12 07:34:52;;;;;;;0.50;0.50;;;4.70;99.90;;;;;;5115640;28;20391;-80
2021/12/12 07:37:18;;;;;;;0.60;0.60;;;4.70;99.90;;;;;;5114567;28;20487;-83
2021/12/12 07:39:45;;;;;;;0.70;0.70;;;4.80;99.90;;;;;;5114315;28;20491;-80
2021/12/12 07:42:13;;;;;;;0.60;0.60;;;4.80;99.90;;;;;;5118734;28;20055;-82
2021/12/12 07:44:40;;;;;;;0.63;0.63;;;4.70;99.90;;;;;;5121633;28;20043;-81
2021/12/12 07:47:08;;;;;;;0.88;0.88;;;4.80;99.90;;;;;;5121742;28;20090;-80
2021/12/12 07:49:41;;;;;;;0.60;0.60;;;4.80;99.90;;;;;;5122169;28;20047;-81
2021/12/12 07:52:11;;;;;;;0.85;0.85;;;4.80;99.90;;;;;;5120685;28;20548;-84
2021/12/12 07:54:37;;;;;;;1.20;1.15;;;4.80;99.90;;;;;;5116143;28;20485;-84
2021/12/12 07:57:04;;;;;;;0.60;0.60;;;4.10;99.90;;;;;;5113982;28;20546;-84
2021/12/12 07:59:31;;;;;;;0.55;0.55;;;4.80;99.90;;;;;;5114162;28;20039;-82
2021/12/12 08:01:57;;;;;;;1.58;1.40;;;4.90;99.90;;;;;;5097269;28;20132;-82
2021/12/12 08:04:27;;;;;;;0.70;0.70;;;4.90;99.90;;;;;;5115132;28;20054;-83
2021/12/12 08:06:54;;;;;;;0.60;0.60;;;4.90;99.90;;;;;;5114252;28;20054;-85
2021/12/12 08:09:22;;;;;;;0.65;0.65;;;5.00;99.90;;;;;;5113996;28;20050;-85
2021/12/12 08:11:48;;;;;;;1.30;0.95;;;5.00;99.90;;;;;;5115007;28;20051;-86
2021/12/12 08:14:20;;;;;;;1.02;0.93;;;4.90;99.90;;;;;;5114361;28;20066;-87
2021/12/12 08:16:47;;;;;;;0.63;0.63;;;5.40;99.90;;;;;;5114855;28;20039;-80
2021/12/12 08:19:13;;;;;;;0.60;0.60;;;5.00;99.90;;;;;;5114916;28;20043;-84
2021/12/12 08:21:39;;;;;;;0.50;0.50;;;4.90;99.90;;;;;;5114802;28;20113;-82
2021/12/12 08:24:09;;;;;;;0.60;0.60;;;5.00;99.90;;;;;;5114349;28;20040;-84
2021/12/12 08:26:37;;;;;;;0.73;0.73;;;5.00;99.90;;;;;;5114467;28;20047;-87
2021/12/12 08:29:08;;;;;;;0.60;0.60;;;5.00;99.90;;;;;;5096277;28;20077;-82
2021/12/12 08:31:35;;;;;;;2.25;1.15;;;5.10;99.90;;;;;;5113368;28;20518;-81
2021/12/12 08:34:02;;;;;;;1.20;1.10;;;5.10;99.90;;;;;;5114305;28;20104;-78
2021/12/12 08:36:28;;;;;;;0.95;0.90;;;5.10;99.90;;;;;;5114882;28;20391;-80
2021/12/12 08:38:54;;;;;;;1.00;0.93;;;5.10;99.90;;;;;;5113926;28;20047;-82
2021/12/12 08:41:20;;;;;;;0.68;0.68;;;5.10;99.90;;;;;;5114427;28;20620;-82
2021/12/12 08:43:46;;;;;;;1.13;1.02;;;5.20;99.90;;;;;;5096474;28;20051;-81
2021/12/12 08:46:15;;;;;;;0.60;0.60;;;5.20;99.90;;;;;;5113036;28;20051;-81
2021/12/12 08:48:46;;;;;;;0.82;0.82;;;5.50;99.90;;;;;;5113212;28;20044;-84
2021/12/12 08:51:30;;;;;;;0.50;0.50;;;5.20;99.90;;;;;;5113848;28;20051;-83
2021/12/12 08:54:01;;;;;;;0.70;0.70;;;5.30;99.90;;;;;;5114471;28;20048;-80
2021/12/12 08:56:42;;;;;;;0.60;0.60;;;5.30;99.90;;;;;;5113441;28;20089;-83
2021/12/12 08:59:16;;;;;;;0.85;0.85;;;5.40;99.90;;;;;;5113545;28;20079;-84
2021/12/12 09:01:42;;;;;;;0.98;0.98;;;5.40;99.90;;;;;;5113129;28;20051;-83
2021/12/12 09:04:09;;;;;;;1.02;0.88;;;5.60;99.90;;;;;;5115862;28;20368;-83
2021/12/12 09:06:41;;;;;;;0.65;0.65;;;5.50;99.90;;;;;;5118422;28;20043;-80
2021/12/12 09:09:12;;;;;;;0.70;0.70;;;5.50;99.90;;;;;;5118410;28;20043;-81
2021/12/12 09:11:45;;;;;;;2.15;1.02;;;5.60;99.90;;;;;;5117400;28;20073;-81
2021/12/12 09:14:11;;;;;;;1.50;1.40;;;5.70;99.90;;;;;;5117592;28;20124;-82
2021/12/12 09:17:02;;;;;;;3.70;1.60;;;5.60;99.90;;;;;;5117113;28;20475;-80
2021/12/12 09:19:45;;;;;;;0.65;0.65;;;5.60;99.90;;;;;;5117475;28;20064;-82
2021/12/12 09:22:37;;;;;;;0.70;0.70;;;5.80;99.90;;;;;;5117910;28;20048;-82
2021/12/12 09:25:15;;;;;;;0.85;0.60;;;5.60;99.90;;;;;;5116862;28;20497;-82
2021/12/12 09:27:55;;;;;;;0.80;0.80;;;5.70;99.90;;;;;;5117819;28;20040;-84
2021/12/12 09:30:24;;;;;;;0.73;0.73;;;5.70;99.90;;;;;;5117020;28;20090;-84
2021/12/12 09:32:52;;;;;;;1.50;0.95;;;5.70;99.90;;;;;;5117883;28;20048;-81
2021/12/12 09:35:29;;;;;;;0.70;0.70;;;5.70;99.90;;;;;;5117958;28;20121;-84
2021/12/12 09:38:01;;;;;;;2.15;0.80;;;5.70;99.90;;;;;;5117614;28;20130;-82
2021/12/12 09:40:39;;;;;;;0.90;0.90;;;5.80;99.90;;;;;;5117659;28;20079;-84
2021/12/12 09:43:22;;;;;;;0.60;0.60;;;5.80;99.90;;;;;;5116765;28;20062;-81
2021/12/12 09:46:05;;;;;;;1.17;0.80;;;5.80;99.90;;;;;;5117470;28;20047;-83
2021/12/12 09:51:40;;;;;;;1.73;1.58;;;5.90;99.90;;;;;;5116484;28;20173;-82
2021/12/12 09:54:25;;;;;;;0.60;0.60;;;5.90;99.90;;;;;;5116499;28;20044;-84
2021/12/12 09:57:08;;;;;;;1.48;0.70;;;5.90;99.90;;;;;;5117763;28;20043;-81
2021/12/12 10:00:08;;;;;;;1.10;0.88;;;5.90;99.90;;;;;;5117756;28;20509;-81
2021/12/12 10:03:12;;;;;;;0.70;0.70;;;6.00;99.90;;;;;;5116541;28;20043;-82
2021/12/12 10:05:58;;;;;;;1.20;1.10;;;6.00;99.90;;;;;;5091365;28;20055;-83
2021/12/12 10:08:33;;;;;;;0.70;0.70;;;6.10;99.90;;;;;;5117166;28;20050;-83
2021/12/12 10:11:17;;;;;;;1.20;1.10;;;6.10;99.90;;;;;;5117317;28;20051;-80
2021/12/12 10:13:56;;;;;;;0.70;0.70;;;6.20;99.90;;;;;;5116323;28;20507;-80
2021/12/12 10:16:45;;;;;;;1.20;1.15;;;6.20;99.90;;;;;;5094855;28;20044;-78
2021/12/12 10:19:23;;;;;;;0.75;0.70;;;6.20;99.90;;;;;;5096888;28;20040;-80
2021/12/12 10:22:09;;;;;;;0.50;0.50;;;6.30;99.90;;;;;;5095895;28;20047;-87
2021/12/12 10:24:42;;;;;;;0.60;0.60;;;6.40;99.90;;;;;;5096583;28;20079;-79
2021/12/12 10:27:31;;;;;;;1.98;1.30;;;6.40;99.90;;;;;;5096474;28;20083;-80
2021/12/12 10:30:23;;;;;;;0.50;0.50;;;6.40;99.90;;;;;;5096717;28;20055;-84
2021/12/12 10:33:06;;;;;;;0.70;0.70;;;6.50;99.90;;;;;;5124240;27;20048;-79
2021/12/12 10:35:50;;;;;;;1.88;0.98;;;6.50;99.90;;;;;;5096193;28;20128;-81
2021/12/12 10:38:23;;;;;;;1.13;1.02;;;6.60;99.90;;;;;;5096138;28;20052;-81
2021/12/12 10:41:23;;;;;;;0.70;0.70;;;6.60;99.90;;;;;;5096256;28;20048;-80
2021/12/12 10:44:23;;;;;;;0.70;0.70;;;6.70;99.90;;;;;;5091509;28;20060;-80
2021/12/12 10:47:09;;;;;;;0.77;0.77;;;6.70;99.90;;;;;;5078694;28;20052;-80
2021/12/12 10:49:52;;;;;;;2.25;1.38;;;6.80;99.90;;;;;;5096348;28;20059;-80
2021/12/12 10:52:47;;;;;;;1.55;1.45;;;6.80;99.90;;;;;;5096138;28;20052;-82
2021/12/12 10:55:20;;;;;;;0.80;0.80;;;6.80;99.90;;;;;;5073684;28;20062;-79
2021/12/12 10:58:03;;;;;;;1.30;0.98;;;6.90;99.90;;;;;;5096059;28;20050;-79
2021/12/12 11:00:36;;;;;;;1.10;0.82;;;6.90;99.90;;;;;;5095651;28;20050;-80
2021/12/12 11:03:10;;;;;;;1.05;0.85;;;7.00;99.90;;;;;;5095209;28;20391;-82
2021/12/12 11:05:40;;;;;;;0.70;0.68;;;7.00;99.90;;;;;;5095191;28;20403;-81
2021/12/12 11:08:33;;;;;;;0.95;0.88;;;7.00;99.90;;;;;;5095705;28;20042;-82
2021/12/12 11:11:01;;;;;;;2.50;1.08;;;7.10;99.90;;;;;;5094467;28;20052;-80
2021/12/12 11:13:40;;;;;;;1.58;1.25;;;7.10;99.90;;;;;;5095532;28;20097;-78
2021/12/12 11:16:29;;;;;;;0.73;0.65;;;7.10;99.90;;;;;;5128516;27;20047;-80
2021/12/12 11:19:05;;;;;;;0.50;0.50;;;7.20;99.90;;;;;;5128676;27;20048;-80
2021/12/12 11:21:35;;;;;;;0.70;0.70;;;7.20;99.90;;;;;;5094669;28;20137;-80
2021/12/12 11:24:11;;;;;;;0.88;0.80;;;7.30;99.90;;;;;;5094483;28;20036;-79
2021/12/12 11:26:45;;;;;;;0.98;0.95;;;7.30;99.90;;;;;;5093329;28;20059;-80
2021/12/12 11:29:16;;;;;;;0.55;0.55;;;7.30;99.90;;;;;;5094364;28;20055;-79
2021/12/12 11:31:54;;;;;;;0.60;0.60;;;7.40;99.90;;;;;;5094067;28;20044;-78
2021/12/12 11:34:22;;;;;;;1.00;0.98;;;7.40;99.90;;;;;;5095386;28;20047;-80
2021/12/12 11:37:18;;;;;;;0.68;0.68;;;7.40;99.90;;;;;;5095542;28;20089;-81
2021/12/12 11:40:06;;;;;;;1.20;0.70;;;7.40;99.90;;;;;;5095283;28;20040;-80
2021/12/12 11:42:46;;;;;;;0.60;0.60;;;7.40;99.90;;;;;;5094580;28;20079;-81
2021/12/12 11:45:41;;;;;;;0.85;0.85;;;7.50;99.90;;;;;;5095074;28;20173;-79
2021/12/12 11:48:28;;;;;;;0.70;0.70;;;7.50;99.90;;;;;;5094906;28;20052;-79
2021/12/12 11:51:17;;;;;;;0.93;0.80;;;7.50;99.90;;;;;;5094449;28;20055;-80
2021/12/12 11:53:58;;;;;;;0.85;0.80;;;7.50;99.90;;;;;;5093711;28;20411;-80
2021/12/12 11:56:45;;;;;;;0.75;0.70;;;7.50;99.90;;;;;;5094892;28;20044;-79
2021/12/12 11:59:22;;;;;;;0.88;0.88;;;7.60;99.90;;;;;;5094605;28;20044;-80
2021/12/12 12:01:47;;;;;;;0.50;0.50;;;7.60;99.90;;;;;;5094535;28;20047;-80
2021/12/12 12:04:50;;;;;;;0.50;0.50;;;7.80;99.90;;;;;;5094553;28;20044;-81
2021/12/12 12:07:28;;;;;;;0.50;0.50;;;7.60;99.90;;;;;;5094321;28;20039;-81
2021/12/12 12:09:55;;;;;;;0.60;0.60;;;7.60;99.90;;;;;;5094832;28;20161;-82
2021/12/12 12:12:40;;;;;;;1.05;0.95;;;7.60;99.90;;;;;;5098552;28;20048;-82
2021/12/12 12:15:38;;;;;;;0.60;0.60;;;7.60;99.90;;;;;;5127473;27;20054;-81
2021/12/12 12:18:15;;;;;;;0.73;0.73;;;7.60;99.90;;;;;;5092989;28;20177;-82
2021/12/12 12:21:03;;;;;;;0.60;0.60;;;7.60;99.90;;;;;;5093740;28;20059;-80
2021/12/12 12:26:52;;;;;;;0.50;0.50;;;7.70;99.90;;;;;;5094050;28;20055;-81
2021/12/12 12:29:30;;;;;;;0.80;0.80;;;7.70;99.90;;;;;;5094339;28;20392;-81
2021/12/12 12:32:24;;;;;;;0.73;0.73;;;7.70;99.90;;;;;;5093271;28;20458;-81
2021/12/12 12:34:49;;;;;;;1.20;1.10;;;7.80;99.90;;;;;;5093858;28;20472;-80
2021/12/12 12:37:52;;;;;;;1.20;1.10;;;7.80;99.90;;;;;;5094556;28;20050;-81
2021/12/12 12:40:55;;;;;;;1.02;1.02;;;7.80;99.90;;;;;;5092629;28;20055;-81
2021/12/12 12:43:39;;;;;;;0.82;0.82;;;7.90;99.90;;;;;;5094478;28;20080;-81
2021/12/12 12:46:08;;;;;;;0.63;0.63;;;7.90;99.90;;;;;;5093999;28;20140;-80
2021/12/12 12:49:31;;;;;;;1.50;0.90;;;7.90;99.90;;;;;;5092802;28;20127;-80
2021/12/12 12:52:34;;;;;;;0.68;0.68;;;7.90;99.90;;;;;;5028284;28;20052;-80
2021/12/12 12:55:18;;;;;;;1.08;0.90;;;7.90;99.90;;;;;;5011815;28;20054;-81
2021/12/12 12:57:46;;;;;;;0.90;0.73;;;7.90;99.90;;;;;;5091315;28;20051;-81
2021/12/12 13:00:16;;;;;;;0.88;0.88;;;8.00;99.90;;;;;;5092594;28;20407;-82
2021/12/12 13:03:26;;;;;;;2.75;0.88;;;8.00;99.90;;;;;;5093789;28;20044;-82
2021/12/12 13:05:57;;;;;;;0.88;0.88;;;8.00;99.90;;;;;;5093797;28;20044;-83
2021/12/12 13:09:03;;;;;;;0.77;0.77;;;8.00;99.90;;;;;;5093558;28;20044;-81
2021/12/12 13:11:53;;;;;;;0.50;0.50;;;8.00;99.90;;;;;;5093552;28;20476;-81
2021/12/12 13:14:22;;;;;;;0.63;0.63;;;8.10;99.90;;;;;;5093555;28;20040;-83
2021/12/12 13:17:14;;;;;;;1.23;1.13;;;8.10;99.90;;;;;;5094259;28;20063;-85
2021/12/12 13:20:07;;;;;;;0.80;0.80;;;8.10;99.90;;;;;;5092589;28;20044;-86
2021/12/12 13:22:43;;;;;;;1.52;1.42;;;8.10;99.90;;;;;;5093154;28;20144;-84
2021/12/12 13:25:21;;;;;;;0.90;0.90;;;8.10;99.90;;;;;;5093591;28;20040;-84
2021/12/12 13:28:08;;;;;;;0.73;0.73;;;8.10;99.90;;;;;;5092288;28;20046;-85
2021/12/12 13:30:43;;;;;;;1.95;1.30;;;8.10;99.90;;;;;;5093690;28;20036;-84
2021/12/12 13:33:23;;;;;;;0.93;0.93;;;8.10;99.90;;;;;;5092345;28;20051;-84
2021/12/12 13:36:09;;;;;;;2.08;1.15;;;8.10;99.90;;;;;;5093907;28;20052;-86
2021/12/12 13:38:44;;;;;;;0.60;0.60;;;8.20;99.90;;;;;;5093626;28;20043;-85
2021/12/12 13:41:21;;;;;;;1.95;0.95;;;8.20;99.90;;;;;;5093474;28;20074;-84
2021/12/12 13:44:16;;;;;;;2.28;1.38;;;8.20;99.90;;;;;;5126838;28;20123;-84
2021/12/12 13:47:08;;;;;;;0.50;0.50;;;8.20;99.90;;;;;;5093382;28;20095;-85
2021/12/12 13:49:47;;;;;;;0.60;0.60;;;8.20;99.90;;;;;;5093280;28;20044;-84
2021/12/12 13:52:27;;;;;;;2.65;1.85;;;8.20;99.90;;;;;;5096091;28;20502;-85